Time;durP1;ratioP1;P1;durP2;ratioP2;P2;SDS_P1;SDS_P2;PMS_P1;PMS_P2;Temp;Humidity;BMP_temperature;BMP_pressure;BME280_temperature;BME280_humidity;BME280_pressure;Samples;Min_cycle;Max_cycle;Signal;HPM_P1;HPM_P2
2022/11/01 00:01:06;;;;;;;;;;;12.30;99.90;;;;;;5069828;28;20427;-71
2022/11/01 00:03:32;;;;;;;;;;;12.30;99.90;;;;;;5069685;28;19923;-70
2022/11/01 00:05:57;;;;;;;;;;;12.40;99.90;;;;;;5065615;28;19924;-70
2022/11/01 00:08:23;;;;;;;;;;;12.40;99.90;;;;;;5062914;28;20570;-70
2022/11/01 00:10:48;;;;;;;;;;;12.40;99.90;;;;;;5065238;28;20007;-69
2022/11/01 00:13:14;;;;;;;;;;;12.50;99.90;;;;;;5072755;28;19925;-70
2022/11/01 00:15:39;;;;;;;;;;;12.50;99.90;;;;;;5070961;28;19924;-69
2022/11/01 00:18:05;;;;;;;;;;;12.50;99.90;;;;;;5074719;28;19927;-70
2022/11/01 00:20:30;;;;;;;;;;;12.60;99.90;;;;;;5058980;28;20315;-70
2022/11/01 00:22:56;;;;;;;;;;;12.60;99.90;;;;;;5075033;28;19974;-70
2022/11/01 00:25:21;;;;;;;;;;;12.60;99.90;;;;;;5068142;28;19921;-70
2022/11/01 00:27:47;;;;;;;;;;;12.70;99.90;;;;;;5069297;28;19932;-69
2022/11/01 00:30:12;;;;;;;;;;;12.60;99.90;;;;;;5069518;28;19924;-71
2022/11/01 00:32:38;;;;;;;;;;;12.70;99.90;;;;;;5065426;28;20374;-69
2022/11/01 00:35:03;;;;;;;;;;;12.70;99.90;;;;;;5070244;28;19933;-69
2022/11/01 00:37:29;;;;;;;;;;;12.70;99.90;;;;;;5063694;28;20294;-69
2022/11/01 00:39:54;;;;;;;;;;;12.80;99.90;;;;;;5069305;28;19932;-68
2022/11/01 00:42:21;;;;;;;;;;;12.70;99.90;;;;;;5070690;28;19921;-68
2022/11/01 00:44:46;;;;;;;;;;;12.80;99.90;;;;;;5068861;28;20024;-68
2022/11/01 00:47:12;;;;;;;;;;;12.80;99.90;;;;;;5064198;28;20010;-69
2022/11/01 00:49:37;;;;;;;;;;;12.90;99.90;;;;;;5092192;28;19927;-69
2022/11/01 00:52:03;;;;;;;;;;;12.80;99.90;;;;;;5073706;28;19924;-70
2022/11/01 00:54:28;;;;;;;;;;;12.90;99.90;;;;;;5068365;28;20007;-70
2022/11/01 00:56:54;;;;;;;;;;;12.90;99.90;;;;;;5075256;28;20366;-69
2022/11/01 00:59:19;;;;;;;;;;;13.00;99.90;;;;;;5057042;28;20015;-68
2022/11/01 01:01:45;;;;;;;;;;;13.00;99.90;;;;;;5068609;28;19924;-69
2022/11/01 01:04:10;;;;;;;;;;;13.00;99.90;;;;;;5061457;28;19960;-69
2022/11/01 01:06:36;;;;;;;;;;;13.00;99.90;;;;;;5102046;28;20387;-70
2022/11/01 01:09:01;;;;;;;;;;;13.10;99.90;;;;;;5055582;28;19920;-70
2022/11/01 01:11:27;;;;;;;;;;;13.10;99.90;;;;;;5064871;28;19937;-69
2022/11/01 01:13:53;;;;;;;;;;;13.10;99.90;;;;;;5066895;28;20039;-70
2022/11/01 01:16:18;;;;;;;;;;;13.10;99.90;;;;;;5101280;28;19920;-70
2022/11/01 01:18:44;;;;;;;;;;;13.20;99.90;;;;;;5064027;28;19928;-70
2022/11/01 01:21:09;;;;;;;;;;;13.10;99.90;;;;;;5061262;28;19928;-70
2022/11/01 01:23:35;;;;;;;;;;;13.20;99.90;;;;;;5070658;28;19928;-71
2022/11/01 01:26:07;;;;;;;;;;;13.20;99.90;;;;;;5062906;28;20452;-71
2022/11/01 01:28:33;;;;;;;;;;;13.20;99.90;;;;;;5068431;28;19998;-71
2022/11/01 01:30:59;;;;;;;;;;;13.20;99.90;;;;;;5071838;28;20371;-72
2022/11/01 01:33:24;;;;;;;;;;;13.20;99.90;;;;;;5074329;28;20374;-71
2022/11/01 01:35:50;;;;;;;;;;;13.20;99.90;;;;;;5102696;27;19920;-71
2022/11/01 01:38:15;;;;;;;;;;;13.20;99.90;;;;;;5073616;28;19960;-71
2022/11/01 01:40:41;;;;;;;;;;;13.20;99.90;;;;;;5066722;28;20011;-71
2022/11/01 01:43:10;;;;;;;;;;;13.10;99.90;;;;;;5058052;28;19928;-71
2022/11/01 01:45:37;;;;;;;;;;;13.20;99.90;;;;;;5068462;28;20294;-72
2022/11/01 01:48:06;;;;;;;;;;;13.20;99.90;;;;;;5076941;28;19990;-72
2022/11/01 01:50:35;;;;;;;;;;;13.30;99.90;;;;;;5063515;28;19920;-71
2022/11/01 01:53:05;;;;;;;;;;;13.20;99.90;;;;;;5095628;27;19924;-71
2022/11/01 01:55:36;;;;;;;;;;;13.30;99.90;;;;;;5066765;28;19924;-71
2022/11/01 01:58:02;;;;;;;;;;;13.30;99.90;;;;;;5105672;27;20291;-70
2022/11/01 02:00:28;;;;;;;;;;;13.30;99.90;;;;;;5103412;27;19924;-71
2022/11/01 02:02:53;;;;;;;;;;;13.30;99.90;;;;;;5074916;28;19920;-70
2022/11/01 02:05:22;;;;;;;;;;;13.40;99.90;;;;;;5075810;28;19920;-71
2022/11/01 02:07:48;;;;;;;;;;;13.30;99.90;;;;;;5063930;28;20015;-70
2022/11/01 02:10:14;;;;;;;;;;;13.40;99.90;;;;;;5069610;28;20024;-71
2022/11/01 02:12:43;;;;;;;;;;;13.30;99.90;;;;;;5075772;28;19920;-70
2022/11/01 02:15:12;;;;;;;;;;;13.30;99.90;;;;;;5071987;28;19930;-70
2022/11/01 02:17:47;;;;;;;;;;;13.40;99.90;;;;;;5105077;27;19926;-69
2022/11/01 02:20:31;;;;;;;;;;;13.30;99.90;;;;;;5068836;28;19925;-69
2022/11/01 02:23:15;;;;;;;;;;;13.30;99.90;;;;;;5072569;28;20039;-70
2022/11/01 02:26:01;;;;;;;;;;;13.30;99.90;;;;;;5069001;28;19921;-68
2022/11/01 02:28:26;;;;;;;;;;;13.40;99.90;;;;;;5065044;28;20007;-71
2022/11/01 02:31:02;;;;;;;;;;;13.30;99.90;;;;;;5073059;28;20349;-71
2022/11/01 02:33:37;;;;;;;;;;;13.30;99.90;;;;;;5075881;28;20015;-70
2022/11/01 02:36:05;;;;;;;;;;;13.40;99.90;;;;;;5104201;27;20014;-70
2022/11/01 02:38:39;;;;;;;;;;;13.30;99.90;;;;;;5067603;28;20283;-70
2022/11/01 02:41:15;;;;;;;;;;;13.40;99.90;;;;;;5099385;27;19947;-70
2022/11/01 02:44:01;;;;;;;;;;;13.40;99.90;;;;;;5066740;28;19921;-70
2022/11/01 02:49:14;;;;;;;;;;;13.40;99.90;;;;;;5067618;28;19971;-70
2022/11/01 02:51:41;;;;;;;;;;;13.40;99.90;;;;;;5082299;28;19960;-70
2022/11/01 02:54:09;;;;;;;;;;;13.40;99.90;;;;;;5059510;28;19982;-70
2022/11/01 02:56:36;;;;;;;;;;;13.50;99.90;;;;;;5069763;28;19973;-69
2022/11/01 02:59:02;;;;;;;;;;;13.50;99.90;;;;;;5067916;28;20015;-71
2022/11/01 03:01:28;;;;;;;;;;;13.50;99.90;;;;;;5071866;28;20398;-69
2022/11/01 03:03:56;;;;;;;;;;;13.60;99.90;;;;;;5064189;28;20105;-70
2022/11/01 03:06:23;;;;;;;;;;;13.70;99.90;;;;;;5070521;28;19943;-70
2022/11/01 03:08:56;;;;;;;;;;;13.60;99.90;;;;;;5075506;28;20352;-70
2022/11/01 03:11:23;;;;;;;;;;;13.70;99.90;;;;;;5080598;28;20287;-69
2022/11/01 03:13:48;;;;;;;;;;;13.70;99.90;;;;;;5069065;28;20752;-69
2022/11/01 03:16:18;;;;;;;;;;;13.90;99.90;;;;;;5066978;28;20018;-70
2022/11/01 03:18:59;;;;;;;;;;;13.80;99.90;;;;;;5074892;28;19928;-69
2022/11/01 03:21:26;;;;;;;;;;;13.80;99.90;;;;;;5065595;28;20386;-69
2022/11/01 03:24:11;;;;;;;;;;;14.00;99.90;;;;;;5073659;28;20278;-68
2022/11/01 03:26:37;;;;;;;;;;;13.80;99.90;;;;;;5064927;28;20007;-70
2022/11/01 03:29:06;;;;;;;;;;;13.90;99.90;;;;;;5067421;28;20026;-69
2022/11/01 03:31:32;;;;;;;;;;;14.00;99.90;;;;;;5060579;28;20397;-71
2022/11/01 03:34:05;;;;;;;;;;;13.90;99.90;;;;;;5074726;28;19920;-70
2022/11/01 03:36:33;;;;;;;;;;;13.90;99.90;;;;;;5066930;28;20282;-69
2022/11/01 03:39:01;;;;;;;;;;;13.90;99.90;;;;;;5064100;28;20284;-70
2022/11/01 03:41:28;;;;;;;;;;;14.00;99.90;;;;;;5068270;28;19928;-70
2022/11/01 03:43:54;;;;;;;;;;;14.00;99.90;;;;;;5071812;28;20477;-69
2022/11/01 03:46:20;;;;;;;;;;;14.00;99.90;;;;;;5050442;28;19921;-69
2022/11/01 03:48:45;;;;;;;;;;;14.20;99.90;;;;;;5103030;27;20302;-70
2022/11/01 03:51:11;;;;;;;;;;;14.20;99.90;;;;;;5074858;28;20290;-72
2022/11/01 03:53:37;;;;;;;;;;;14.30;99.90;;;;;;5071718;28;20402;-69
2022/11/01 03:56:03;;;;;;;;;;;14.40;99.90;;;;;;5071329;28;20367;-69
2022/11/01 03:58:40;;;;;;;;;;;14.50;99.90;;;;;;5102030;27;20416;-70
2022/11/01 04:01:06;;;;;;;;;;;14.60;99.90;;;;;;5070396;28;19984;-70
2022/11/01 04:03:32;;;;;;;;;;;14.60;99.90;;;;;;5069767;28;20429;-68
2022/11/01 04:05:57;;;;;;;;;;;14.70;99.90;;;;;;5092570;27;19970;-70
2022/11/01 04:08:23;;;;;;;;;;;14.70;99.90;;;;;;5072888;28;20290;-71
2022/11/01 04:10:48;;;;;;;;;;;14.70;99.90;;;;;;5061879;28;19944;-70
2022/11/01 04:13:14;;;;;;;;;;;14.70;99.90;;;;;;5102051;27;19975;-70
2022/11/01 04:21:10;;;;;;;;;;;14.80;99.90;;;;;;5073736;28;19931;-73
2022/11/01 04:23:36;;;;;;;;;;;14.70;99.90;;;;;;5067820;28;19928;-70
2022/11/01 04:26:03;;;;;;;;;;;14.70;99.90;;;;;;5065646;28;19931;-70
2022/11/01 04:28:28;;;;;;;;;;;14.80;99.90;;;;;;5095315;27;19921;-69
2022/11/01 04:30:53;;;;;;;;;;;14.70;99.90;;;;;;5068638;28;19924;-73
2022/11/01 04:33:19;;;;;;;;;;;14.80;99.90;;;;;;5047937;28;19999;-71
2022/11/01 04:35:45;;;;;;;;;;;14.70;99.90;;;;;;5106684;28;19929;-70
2022/11/01 04:38:12;;;;;;;;;;;14.70;99.90;;;;;;5056827;28;19967;-70
2022/11/01 04:40:39;;;;;;;;;;;14.80;99.90;;;;;;5099662;28;19932;-70
2022/11/01 04:43:04;;;;;;;;;;;14.80;99.90;;;;;;5069191;28;20023;-70
2022/11/01 04:45:30;;;;;;;;;;;14.80;99.90;;;;;;5053965;28;20286;-69
2022/11/01 04:48:03;;;;;;;;;;;14.80;99.90;;;;;;5069113;28;19920;-70
2022/11/01 04:50:28;;;;;;;;;;;14.80;99.90;;;;;;5063263;28;19921;-69
2022/11/01 04:52:53;;;;;;;;;;;14.90;99.90;;;;;;5060944;28;20385;-70
2022/11/01 04:55:20;;;;;;;;;;;14.90;99.90;;;;;;5059119;28;19928;-71
2022/11/01 04:57:45;;;;;;;;;;;14.90;99.90;;;;;;5056499;28;19927;-70
2022/11/01 05:00:12;;;;;;;;;;;14.90;99.90;;;;;;5065753;28;20316;-71
2022/11/01 05:02:38;;;;;;;;;;;15.00;99.90;;;;;;5071434;28;19924;-71
2022/11/01 05:05:04;;;;;;;;;;;15.10;99.90;;;;;;5067904;28;19937;-71
2022/11/01 05:07:30;;;;;;;;;;;15.10;99.90;;;;;;5071407;28;19974;-70
2022/11/01 05:09:55;;;;;;;;;;;15.10;99.90;;;;;;5068301;28;19920;-72
2022/11/01 05:12:20;;;;;;;;;;;15.10;99.90;;;;;;5071360;28;19925;-70
2022/11/01 05:14:46;;;;;;;;;;;15.20;99.90;;;;;;5065060;28;19932;-70
2022/11/01 05:17:11;;;;;;;;;;;15.20;99.90;;;;;;5069065;28;19925;-70
2022/11/01 05:19:37;;;;;;;;;;;15.30;99.90;;;;;;5072413;28;19924;-69
2022/11/01 05:22:03;;;;;;;;;;;15.30;99.90;;;;;;5069207;28;20260;-68
2022/11/01 05:24:28;;;;;;;;;;;15.30;99.90;;;;;;5074187;28;20429;-69
2022/11/01 05:26:54;;;;;;;;;;;15.30;99.90;;;;;;5075636;28;20011;-71
2022/11/01 05:29:19;;;;;;;;;;;15.20;99.90;;;;;;5065922;28;20023;-74
2022/11/01 05:31:45;;;;;;;;;;;15.10;99.90;;;;;;5060750;28;19964;-72
2022/11/01 05:34:10;;;;;;;;;;;15.10;99.90;;;;;;5052801;28;19951;-70
2022/11/01 05:36:36;;;;;;;;;;;15.00;99.90;;;;;;5074238;28;19920;-72
2022/11/01 05:39:01;;;;;;;;;;;14.80;99.90;;;;;;5054155;28;19973;-71
2022/11/01 05:41:27;;;;;;;;;;;14.70;99.90;;;;;;5080331;28;20266;-72
2022/11/01 05:43:52;;;;;;;;;;;14.50;99.90;;;;;;5065931;28;19924;-72
2022/11/01 05:46:19;;;;;;;;;;;14.50;99.90;;;;;;5079084;28;20375;-69
2022/11/01 05:48:45;;;;;;;;;;;14.40;99.90;;;;;;5069804;28;20028;-71
2022/11/01 05:51:10;;;;;;;;;;;14.30;99.90;;;;;;5076616;28;20423;-70
2022/11/01 05:53:36;;;;;;;;;;;14.30;99.90;;;;;;5065159;28;19928;-70
2022/11/01 05:56:01;;;;;;;;;;;14.20;99.90;;;;;;5065655;28;19920;-69
2022/11/01 05:58:27;;;;;;;;;;;14.20;99.90;;;;;;5065554;28;20382;-71
2022/11/01 06:00:56;;;;;;;;;;;14.10;99.90;;;;;;5076005;28;19928;-72
2022/11/01 06:03:21;;;;;;;;;;;14.00;99.90;;;;;;5069409;28;20033;-71
2022/11/01 06:05:47;;;;;;;;;;;14.00;99.90;;;;;;5072046;28;20384;-70
2022/11/01 06:08:12;;;;;;;;;;;13.90;99.90;;;;;;5066084;28;20247;-74
2022/11/01 06:10:38;;;;;;;;;;;13.80;99.90;;;;;;5057784;28;20022;-71
2022/11/01 06:13:03;;;;;;;;;;;13.80;99.90;;;;;;5103539;27;20310;-72
2022/11/01 06:15:29;;;;;;;;;;;13.70;99.90;;;;;;5105631;27;19974;-75
2022/11/01 06:17:56;;;;;;;;;;;13.70;99.90;;;;;;5070449;28;20286;-73
2022/11/01 06:20:21;;;;;;;;;;;13.70;99.90;;;;;;5075481;28;19939;-71
2022/11/01 06:22:47;;;;;;;;;;;13.60;99.90;;;;;;5097350;27;19924;-71
2022/11/01 06:25:12;;;;;;;;;;;13.60;99.90;;;;;;5073646;28;19932;-70
2022/11/01 06:27:38;;;;;;;;;;;13.50;99.90;;;;;;5110829;27;20634;-69
2022/11/01 06:30:04;;;;;;;;;;;13.50;99.90;;;;;;5069352;28;19928;-70
2022/11/01 06:32:29;;;;;;;;;;;13.40;99.90;;;;;;5106353;27;19920;-72
2022/11/01 06:34:55;;;;;;;;;;;13.40;99.90;;;;;;5055340;28;19927;-72
2022/11/01 06:37:20;;;;;;;;;;;13.40;99.90;;;;;;5096054;27;20006;-71
2022/11/01 06:39:46;;;;;;;;;;;13.40;99.90;;;;;;5062873;28;19954;-70
2022/11/01 06:42:11;;;;;;;;;;;13.30;99.90;;;;;;5075570;28;19920;-71
2022/11/01 06:44:37;;;;;;;;;;;13.30;99.90;;;;;;5072107;28;20379;-70
2022/11/01 06:47:02;;;;;;;;;;;13.30;99.90;;;;;;5077843;28;19927;-70
2022/11/01 06:49:29;;;;;;;;;;;13.30;99.90;;;;;;5076619;28;20301;-70
2022/11/01 06:51:54;;;;;;;;;;;13.30;99.90;;;;;;5073869;28;20375;-70
2022/11/01 06:54:20;;;;;;;;;;;13.30;99.90;;;;;;5068994;28;20043;-69
2022/11/01 06:56:46;;;;;;;;;;;13.20;99.90;;;;;;5066313;28;19927;-69
2022/11/01 06:59:12;;;;;;;;;;;13.20;99.90;;;;;;5075883;28;20484;-70
2022/11/01 07:01:37;;;;;;;;;;;13.20;99.90;;;;;;5069173;28;19924;-68
2022/11/01 07:04:03;;;;;;;;;;;13.20;99.90;;;;;;5077910;28;19973;-70
2022/11/01 07:06:29;;;;;;;;;;;13.20;99.90;;;;;;5074629;28;19920;-71
2022/11/01 07:08:56;;;;;;;;;;;13.10;99.90;;;;;;5076399;28;20011;-70
2022/11/01 07:11:22;;;;;;;;;;;13.10;99.90;;;;;;5071691;28;19927;-72
2022/11/01 07:13:47;;;;;;;;;;;13.20;99.90;;;;;;5113903;27;19920;-70
2022/11/01 07:16:13;;;;;;;;;;;13.20;99.90;;;;;;5074888;28;19928;-71
2022/11/01 07:18:38;;;;;;;;;;;13.30;99.90;;;;;;5082523;28;19982;-71
2022/11/01 07:21:04;;;;;;;;;;;13.30;99.90;;;;;;5073219;28;20382;-73
2022/11/01 07:23:30;;;;;;;;;;;13.40;99.90;;;;;;5065492;28;19989;-70
2022/11/01 07:25:55;;;;;;;;;;;13.40;99.90;;;;;;5071953;28;19930;-69
2022/11/01 07:28:21;;;;;;;;;;;13.50;99.90;;;;;;5068770;28;19928;-71
2022/11/01 07:30:50;;;;;;;;;;;13.50;99.90;;;;;;5067469;28;20034;-68
2022/11/01 07:33:16;;;;;;;;;;;13.50;99.90;;;;;;5065696;28;19925;-69
2022/11/01 07:35:41;;;;;;;;;;;13.50;99.90;;;;;;5076276;28;20286;-68
2022/11/01 07:38:07;;;;;;;;;;;13.50;99.90;;;;;;5079681;28;19920;-69
2022/11/01 07:40:34;;;;;;;;;;;13.50;99.90;;;;;;5060208;28;19932;-71
2022/11/01 07:43:00;;;;;;;;;;;13.50;99.90;;;;;;5075292;28;20007;-72
2022/11/01 07:45:26;;;;;;;;;;;13.50;99.90;;;;;;5058331;28;20042;-69
2022/11/01 07:47:52;;;;;;;;;;;13.50;99.90;;;;;;5077532;28;19924;-73
2022/11/01 07:50:18;;;;;;;;;;;13.50;99.90;;;;;;5069956;28;19927;-69
2022/11/01 07:52:44;;;;;;;;;;;13.50;99.90;;;;;;5071983;28;20015;-70
2022/11/01 07:55:09;;;;;;;;;;;13.50;99.90;;;;;;5075692;28;20461;-70
2022/11/01 07:57:39;;;;;;;;;;;13.60;99.90;;;;;;5061085;28;20336;-73
2022/11/01 08:00:05;;;;;;;;;;;13.70;99.90;;;;;;5073775;28;19933;-70
2022/11/01 08:02:30;;;;;;;;;;;13.70;99.90;;;;;;5068061;28;19931;-71
2022/11/01 08:04:55;;;;;;;;;;;13.80;99.90;;;;;;5070848;28;19920;-70
2022/11/01 08:07:21;;;;;;;;;;;13.80;99.90;;;;;;5063112;28;19924;-69
2022/11/01 08:09:47;;;;;;;;;;;13.80;99.90;;;;;;5069669;28;19925;-67
2022/11/01 08:12:13;;;;;;;;;;;13.90;99.90;;;;;;5067878;28;19924;-73
2022/11/01 08:14:39;;;;;;;;;;;13.80;99.90;;;;;;5061816;28;20385;-70
2022/11/01 08:17:04;;;;;;;;;;;13.90;99.90;;;;;;5085367;28;20355;-74
2022/11/01 08:19:30;;;;;;;;;;;13.90;99.90;;;;;;5059604;28;19979;-67
2022/11/01 08:21:56;;;;;;;;;;;13.90;99.90;;;;;;5068741;28;19990;-72
2022/11/01 08:24:21;;;;;;;;;;;13.90;99.90;;;;;;5068412;28;20344;-70
2022/11/01 08:26:47;;;;;;;;;;;13.90;99.90;;;;;;5062890;28;19925;-69
2022/11/01 08:29:12;;;;;;;;;;;13.90;99.90;;;;;;5088112;28;20376;-68
2022/11/01 08:31:41;;;;;;;;;;;14.00;99.90;;;;;;5047393;28;20021;-69
2022/11/01 08:34:07;;;;;;;;;;;14.00;99.90;;;;;;5066126;28;20290;-69
2022/11/01 08:36:33;;;;;;;;;;;14.00;99.90;;;;;;5061315;28;19928;-72
2022/11/01 08:38:58;;;;;;;;;;;14.00;99.90;;;;;;5068396;28;19924;-73
2022/11/01 08:41:24;;;;;;;;;;;14.00;99.90;;;;;;5069919;28;20302;-70
2022/11/01 08:43:50;;;;;;;;;;;13.90;99.90;;;;;;5078597;28;19951;-71
2022/11/01 08:46:15;;;;;;;;;;;13.90;99.90;;;;;;5076206;28;19971;-75
2022/11/01 08:48:40;;;;;;;;;;;13.90;99.90;;;;;;5087206;28;20359;-72
2022/11/01 08:51:06;;;;;;;;;;;13.90;99.90;;;;;;5071928;28;19924;-72
2022/11/01 08:53:32;;;;;;;;;;;13.90;99.90;;;;;;5073856;28;19920;-70
2022/11/01 08:55:57;;;;;;;;;;;13.80;99.90;;;;;;5070030;28;20302;-71
2022/11/01 08:58:23;;;;;;;;;;;13.80;99.90;;;;;;5080112;28;19924;-68
2022/11/01 09:00:49;;;;;;;;;;;13.80;99.90;;;;;;5063415;28;19966;-71
2022/11/01 09:03:15;;;;;;;;;;;13.90;99.90;;;;;;5073356;28;19920;-72
2022/11/01 09:05:40;;;;;;;;;;;13.90;99.90;;;;;;5073035;28;20386;-70
2022/11/01 09:08:06;;;;;;;;;;;13.90;99.90;;;;;;5076693;28;19925;-70
2022/11/01 09:10:32;;;;;;;;;;;14.00;99.90;;;;;;5080900;28;19920;-71
2022/11/01 09:12:59;;;;;;;;;;;14.00;99.90;;;;;;5071939;28;20384;-69
2022/11/01 09:15:24;;;;;;;;;;;14.10;99.90;;;;;;5069712;28;19925;-73
2022/11/01 09:17:50;;;;;;;;;;;14.10;99.90;;;;;;5075617;28;20026;-70
2022/11/01 09:20:15;;;;;;;;;;;14.20;99.90;;;;;;5064755;28;19935;-71
2022/11/01 09:22:41;;;;;;;;;;;14.10;99.90;;;;;;5083711;28;19928;-70
2022/11/01 09:25:06;;;;;;;;;;;14.10;99.90;;;;;;5077407;28;19920;-70
2022/11/01 09:27:32;;;;;;;;;;;14.20;99.90;;;;;;5077420;28;19928;-68
2022/11/01 09:29:57;;;;;;;;;;;14.20;99.90;;;;;;5076542;28;19950;-73
2022/11/01 09:32:26;;;;;;;;;;;14.20;99.90;;;;;;5078642;28;19924;-70
2022/11/01 09:34:51;;;;;;;;;;;14.30;99.90;;;;;;5071635;28;20015;-68
2022/11/01 09:37:17;;;;;;;;;;;14.30;99.90;;;;;;5082724;28;20023;-69
2022/11/01 09:39:43;;;;;;;;;;;14.40;99.90;;;;;;5072220;28;19924;-71
2022/11/01 09:42:10;;;;;;;;;;;14.40;99.90;;;;;;5099866;27;19942;-70
2022/11/01 09:44:38;;;;;;;;;;;14.40;99.90;;;;;;5073031;28;20434;-71
2022/11/01 09:47:06;;;;;;;;;;;14.50;99.90;;;;;;5073955;28;19935;-68
2022/11/01 09:49:35;;;;;;;;;;;14.50;99.90;;;;;;5069273;28;19927;-72
2022/11/01 09:52:01;;;;;;;;;;;14.50;99.90;;;;;;5074086;28;20309;-73
2022/11/01 09:54:26;;;;;;;;;;;14.60;99.90;;;;;;5074302;28;19929;-70
2022/11/01 09:57:01;;;;;;;;;;;14.60;99.90;;;;;;5071814;28;20003;-69
2022/11/01 09:59:37;;;;;;;;;;;14.60;99.90;;;;;;5071394;28;19929;-70
2022/11/01 10:02:17;;;;;;;;;;;14.60;99.90;;;;;;5070894;28;19922;-69
2022/11/01 10:05:06;;;;;;;;;;;14.50;99.90;;;;;;5072393;28;20018;-71
2022/11/01 10:07:40;;;;;;;;;;;14.50;99.90;;;;;;5077551;28;19924;-68
2022/11/01 10:10:21;;;;;;;;;;;14.60;99.90;;;;;;5082743;28;20024;-70
2022/11/01 10:12:50;;;;;;;;;;;14.70;99.90;;;;;;5083062;28;19921;-68
2022/11/01 10:15:38;;;;;;;;;;;14.60;99.90;;;;;;5070051;28;19967;-71
2022/11/01 10:18:13;;;;;;;;;;;14.60;99.90;;;;;;5070978;28;19931;-68
2022/11/01 10:20:39;;;;;;;;;;;14.60;99.90;;;;;;5066623;28;19925;-68
2022/11/01 10:23:05;;;;;;;;;;;14.50;99.90;;;;;;5059647;28;19921;-69
2022/11/01 10:25:31;;;;;;;;;;;14.50;99.90;;;;;;5052674;28;20282;-70
2022/11/01 10:27:57;;;;;;;;;;;14.50;99.90;;;;;;5070008;28;19920;-71
2022/11/01 10:30:23;;;;;;;;;;;14.50;99.90;;;;;;5075030;28;19920;-69
2022/11/01 10:33:05;;;;;;;;;;;14.50;99.90;;;;;;5055175;28;19927;-71
2022/11/01 10:35:39;;;;;;;;;;;14.40;99.90;;;;;;5068129;28;20466;-69
2022/11/01 10:38:05;;;;;;;;;;;14.40;99.90;;;;;;5069613;28;19934;-70
2022/11/01 10:40:35;;;;;;;;;;;14.50;99.90;;;;;;5071646;28;20382;-70
2022/11/01 10:43:00;;;;;;;;;;;14.50;99.90;;;;;;5098869;27;19920;-69
2022/11/01 10:45:26;;;;;;;;;;;14.50;99.90;;;;;;5066738;28;19928;-71
2022/11/01 10:47:55;;;;;;;;;;;14.50;99.90;;;;;;5109361;27;20362;-69
2022/11/01 10:50:22;;;;;;;;;;;14.60;99.90;;;;;;5074749;28;19925;-67
2022/11/01 10:52:50;;;;;;;;;;;14.70;99.90;;;;;;5074700;28;19924;-71
2022/11/01 10:55:19;;;;;;;;;;;14.80;99.90;;;;;;5073543;28;19924;-72
2022/11/01 10:57:48;;;;;;;;;;;14.90;99.90;;;;;;5075369;28;19924;-72
2022/11/01 11:00:15;;;;;;;;;;;15.00;99.90;;;;;;5100001;27;19968;-67
2022/11/01 11:02:42;;;;;;;;;;;14.80;99.90;;;;;;5077455;28;20347;-69
2022/11/01 11:05:12;;;;;;;;;;;14.80;99.90;;;;;;5075344;28;20012;-71
2022/11/01 11:07:38;;;;;;;;;;;14.90;99.90;;;;;;5077640;28;19920;-71
2022/11/01 11:10:10;;;;;;;;;;;14.90;99.90;;;;;;5104144;27;20367;-70
2022/11/01 11:12:36;;;;;;;;;;;15.00;99.90;;;;;;5061119;28;19924;-71
2022/11/01 11:15:02;;;;;;;;;;;15.10;99.90;;;;;;5073994;28;19924;-69
2022/11/01 11:17:36;;;;;;;;;;;15.00;99.90;;;;;;5078486;28;19920;-71
2022/11/01 11:20:07;;;;;;;;;;;15.10;99.90;;;;;;5074903;28;20042;-70
2022/11/01 11:22:39;;;;;;;;;;;15.10;99.90;;;;;;5071353;28;19966;-72
2022/11/01 11:25:16;;;;;;;;;;;15.10;99.90;;;;;;5068315;28;19928;-70
2022/11/01 11:27:46;;;;;;;;;;;15.20;99.90;;;;;;5093712;27;19921;-71
2022/11/01 11:30:22;;;;;;;;;;;15.20;99.90;;;;;;5101927;28;19921;-70
2022/11/01 11:32:48;;;;;;;;;;;15.20;99.90;;;;;;5064371;28;19986;-71
2022/11/01 11:35:13;;;;;;;;;;;15.30;99.90;;;;;;5065077;28;20374;-69
2022/11/01 11:37:48;;;;;;;;;;;15.30;99.90;;;;;;5062373;28;20043;-71
2022/11/01 11:40:14;;;;;;;;;;;15.30;99.90;;;;;;5069444;28;19933;-69
2022/11/01 11:42:39;;;;;;;;;;;15.40;99.90;;;;;;5049228;28;19924;-74
2022/11/01 11:45:19;;;;;;;;;;;15.40;99.90;;;;;;5068416;28;19951;-71
2022/11/01 11:47:48;;;;;;;;;;;15.40;99.90;;;;;;5061444;28;19975;-69
2022/11/01 11:50:20;;;;;;;;;;;15.40;99.90;;;;;;5067261;28;19924;-70
2022/11/01 11:53:24;;;;;;;;;;;15.40;99.90;;;;;;5048221;28;19924;-69
2022/11/01 11:55:54;;;;;;;;;;;15.40;99.90;;;;;;5014619;28;19921;-70
2022/11/01 11:58:27;;;;;;;;;;;15.50;99.90;;;;;;5011674;28;20557;-72
2022/11/01 12:01:01;;;;;;;;;;;15.50;99.90;;;;;;5037635;28;19932;-71
2022/11/01 12:03:27;;;;;;;;;;;15.60;99.90;;;;;;5083754;28;19995;-69
2022/11/01 12:05:54;;;;;;;;;;;15.60;99.90;;;;;;5082395;28;19933;-67
2022/11/01 12:08:32;;;;;;;;;;;15.60;99.90;;;;;;5098160;28;20299;-70
2022/11/01 12:10:58;;;;;;;;;;;15.60;99.90;;;;;;5055993;28;20069;-70
2022/11/01 12:13:44;;;;;;;;;;;15.60;99.90;;;;;;5063257;28;20457;-70
2022/11/01 12:16:15;;;;;;;;;;;15.60;99.90;;;;;;5050395;28;19967;-67
2022/11/01 12:18:53;;;;;;;;;;;15.60;99.90;;;;;;5067518;28;20298;-69
2022/11/01 12:21:24;;;;;;;;;;;15.70;99.90;;;;;;5058870;28;19953;-72
2022/11/01 12:23:55;;;;;;;;;;;15.70;99.90;;;;;;5070754;28;20385;-71
2022/11/01 12:26:22;;;;;;;;;;;15.70;99.90;;;;;;5062478;28;19920;-71
2022/11/01 12:28:55;;;;;;;;;;;15.70;99.90;;;;;;5084330;28;19920;-68
2022/11/01 12:31:21;;;;;;;;;;;15.70;99.90;;;;;;5065227;28;19977;-68
2022/11/01 12:34:04;;;;;;;;;;;15.80;99.90;;;;;;5069542;28;20346;-68
2022/11/01 12:36:31;;;;;;;;;;;15.80;99.90;;;;;;5068102;28;20011;-73
2022/11/01 12:39:11;;;;;;;;;;;15.80;99.90;;;;;;5070513;28;20011;-69
2022/11/01 12:41:42;;;;;;;;;;;15.80;99.90;;;;;;5052580;28;19921;-66
2022/11/01 12:44:11;;;;;;;;;;;15.90;99.90;;;;;;5050364;28;19925;-67
2022/11/01 12:46:56;;;;;;;;;;;15.90;99.90;;;;;;5079123;28;19931;-66
2022/11/01 12:49:43;;;;;;;;;;;16.00;99.90;;;;;;5060421;28;20011;-69
2022/11/01 12:52:12;;;;;;;;;;;16.00;99.90;;;;;;5067207;28;19925;-71
2022/11/01 12:54:41;;;;;;;;;;;16.00;99.90;;;;;;5063676;28;19920;-69
2022/11/01 12:57:17;;;;;;;;;;;16.10;99.90;;;;;;5068719;28;19999;-70
2022/11/01 12:59:43;;;;;;;;;;;16.00;99.90;;;;;;5051148;28;20386;-72
2022/11/01 13:02:31;;;;;;;;;;;16.00;99.90;;;;;;5050714;28;19921;-69
2022/11/01 13:05:05;;;;;;;;;;;15.90;99.90;;;;;;5050168;28;19929;-73
2022/11/01 13:07:33;;;;;;;;;;;15.90;99.90;;;;;;5059764;28;19920;-69
2022/11/01 13:10:07;;;;;;;;;;;15.90;99.90;;;;;;5066373;28;19971;-69
2022/11/01 13:12:41;;;;;;;;;;;15.90;99.90;;;;;;5069083;28;20015;-68
2022/11/01 13:15:15;;;;;;;;;;;15.90;99.90;;;;;;5066055;28;20069;-67
2022/11/01 13:17:46;;;;;;;;;;;15.90;99.90;;;;;;5085681;28;19931;-67
2022/11/01 13:20:21;;;;;;;;;;;15.90;99.90;;;;;;5050785;28;20290;-67
2022/11/01 13:23:01;;;;;;;;;;;15.90;99.90;;;;;;5065919;28;20536;-69
2022/11/01 13:25:47;;;;;;;;;;;15.90;99.90;;;;;;5049444;28;19925;-67
2022/11/01 13:28:23;;;;;;;;;;;15.90;99.90;;;;;;5057309;28;19925;-69
2022/11/01 13:30:57;;;;;;;;;;;15.90;99.90;;;;;;5087866;28;19928;-67
2022/11/01 13:33:31;;;;;;;;;;;15.90;99.90;;;;;;5053604;28;19939;-68
2022/11/01 13:36:01;;;;;;;;;;;15.80;99.90;;;;;;5050014;28;20356;-68
2022/11/01 13:38:45;;;;;;;;;;;15.90;99.90;;;;;;5053003;28;20354;-67
2022/11/01 13:41:18;;;;;;;;;;;15.90;99.90;;;;;;5085875;28;19932;-67
2022/11/01 13:43:47;;;;;;;;;;;15.80;99.90;;;;;;5051594;28;19928;-68
2022/11/01 13:46:12;;;;;;;;;;;15.80;99.90;;;;;;5052781;28;19924;-68
2022/11/01 13:48:46;;;;;;;;;;;15.80;99.90;;;;;;5083476;28;19924;-68
2022/11/01 13:51:27;;;;;;;;;;;15.70;99.90;;;;;;5049440;28;19921;-67
2022/11/01 13:53:57;;;;;;;;;;;15.80;99.90;;;;;;5051062;28;19932;-67
2022/11/01 13:56:27;;;;;;;;;;;15.70;99.90;;;;;;5053213;28;19959;-68
2022/11/01 13:58:53;;;;;;;;;;;15.70;99.90;;;;;;5054644;28;19928;-72
2022/11/01 14:01:28;;;;;;;;;;;15.70;99.90;;;;;;5047903;28;19924;-67
2022/11/01 14:04:12;;;;;;;;;;;15.70;99.90;;;;;;5053560;28;19928;-70
2022/11/01 14:06:38;;;;;;;;;;;15.70;99.90;;;;;;5052419;28;19929;-68
2022/11/01 14:09:16;;;;;;;;;;;15.60;99.90;;;;;;5053026;28;19928;-68
2022/11/01 14:11:50;;;;;;;;;;;15.60;99.90;;;;;;5050025;28;19928;-68
2022/11/01 14:14:30;;;;;;;;;;;15.60;99.90;;;;;;5085981;27;19929;-68
2022/11/01 14:17:19;;;;;;;;;;;15.60;99.90;;;;;;5085174;28;19924;-68
2022/11/01 14:20:07;;;;;;;;;;;15.50;99.90;;;;;;5041882;28;20291;-69
2022/11/01 14:22:33;;;;;;;;;;;15.40;99.90;;;;;;5048705;28;19928;-68
2022/11/01 14:24:59;;;;;;;;;;;15.30;99.90;;;;;;5055614;28;19936;-68
2022/11/01 14:27:31;;;;;;;;;;;15.30;99.90;;;;;;5048127;28;20043;-68
2022/11/01 14:29:56;;;;;;;;;;;15.30;99.90;;;;;;5049949;28;19928;-68
2022/11/01 14:32:25;;;;;;;;;;;15.30;99.90;;;;;;5051284;28;20272;-67